EKX weather

Addington Field
Elizabethtown, Kentucky, United States

Public forecast

Using degrees Fahrenheit for public forecast. Weather courtesy of forecast.io.

Closest aviation weather report (METAR) to Addington Field

Closest report is Godman Army Air Field, 13.5 nm (24.9 km) N. Retrieved 2020/06/02 00:56 UTC (22 minutes ago):

KFTK 020056Z AUTO 12003KT 10SM CLR 22/07 A3016 RMK AO2 SLP212 T02230065

Closest aviation forecast (TAF) to Addington Field

Closest forecast is Godman Army Air Field, 13.5 nm (24.9 km) N. Retrieved 2020-06-02 01:09 UTC (9 minutes ago):

TAF KFTK 020100Z 0201/0307 VRB06KT 9999 SKC QNH3011INS BECMG 0214/0215 25012G18KT 9999 FEW085 QNH3004INS BECMG 0223/0224 22009KT 9999 FEW020 QNH3002INS TX28/0220Z TN19/0208Z